sensor_id;sensor_type;location;lat;lon;timestamp;P1;durP1;ratioP1;P2;durP2;ratioP2
13230;SDS011;6681;53.254;10.398;2023-03-14T00:00:38;2.23;;;1.07;;
13230;SDS011;6681;53.254;10.398;2023-03-14T00:03:03;4.37;;;1.47;;
13230;SDS011;6681;53.254;10.398;2023-03-14T00:05:29;2.63;;;1.00;;
13230;SDS011;6681;53.254;10.398;2023-03-14T00:07:55;2.87;;;1.10;;
13230;SDS011;6681;53.254;10.398;2023-03-14T00:10:21;2.27;;;1.30;;
13230;SDS011;6681;53.254;10.398;2023-03-14T00:12:46;1.43;;;1.17;;
13230;SDS011;6681;53.254;10.398;2023-03-14T00:15:12;2.57;;;1.03;;
13230;SDS011;6681;53.254;10.398;2023-03-14T00:17:38;4.83;;;1.20;;
13230;SDS011;6681;53.254;10.398;2023-03-14T00:20:05;5.63;;;1.63;;
13230;SDS011;6681;53.254;10.398;2023-03-14T00:22:36;2.93;;;1.20;;
13230;SDS011;6681;53.254;10.398;2023-03-14T00:25:06;3.83;;;1.20;;
13230;SDS011;6681;53.254;10.398;2023-03-14T00:27:33;2.50;;;1.17;;
13230;SDS011;6681;53.254;10.398;2023-03-14T00:29:59;4.00;;;1.83;;
13230;SDS011;6681;53.254;10.398;2023-03-14T00:32:25;3.40;;;1.70;;
13230;SDS011;6681;53.254;10.398;2023-03-14T00:34:51;10.70;;;1.87;;
13230;SDS011;6681;53.254;10.398;2023-03-14T00:37:16;4.47;;;1.07;;
13230;SDS011;6681;53.254;10.398;2023-03-14T00:39:42;4.27;;;1.70;;
13230;SDS011;6681;53.254;10.398;2023-03-14T00:42:08;3.57;;;1.70;;
13230;SDS011;6681;53.254;10.398;2023-03-14T00:44:33;3.37;;;2.10;;
13230;SDS011;6681;53.254;10.398;2023-03-14T00:46:59;4.63;;;2.10;;
13230;SDS011;6681;53.254;10.398;2023-03-14T00:49:25;3.07;;;1.10;;
13230;SDS011;6681;53.254;10.398;2023-03-14T00:51:51;4.30;;;1.63;;
13230;SDS011;6681;53.254;10.398;2023-03-14T00:54:17;2.97;;;1.30;;
13230;SDS011;6681;53.254;10.398;2023-03-14T00:56:43;7.43;;;1.70;;
13230;SDS011;6681;53.254;10.398;2023-03-14T00:59:12;6.47;;;1.60;;
13230;SDS011;6681;53.254;10.398;2023-03-14T01:01:39;4.33;;;2.63;;
13230;SDS011;6681;53.254;10.398;2023-03-14T01:04:04;2.80;;;1.50;;
13230;SDS011;6681;53.254;10.398;2023-03-14T01:06:30;1.73;;;1.37;;
13230;SDS011;6681;53.254;10.398;2023-03-14T01:08:56;4.30;;;1.80;;
13230;SDS011;6681;53.254;10.398;2023-03-14T01:11:24;3.50;;;1.83;;
13230;SDS011;6681;53.254;10.398;2023-03-14T01:13:51;4.40;;;1.97;;
13230;SDS011;6681;53.254;10.398;2023-03-14T01:16:18;6.30;;;1.50;;
13230;SDS011;6681;53.254;10.398;2023-03-14T01:18:44;2.67;;;1.83;;
13230;SDS011;6681;53.254;10.398;2023-03-14T01:23:41;2.43;;;1.43;;
13230;SDS011;6681;53.254;10.398;2023-03-14T01:26:08;3.60;;;1.93;;
13230;SDS011;6681;53.254;10.398;2023-03-14T01:28:38;5.50;;;2.30;;
13230;SDS011;6681;53.254;10.398;2023-03-14T01:31:05;5.03;;;1.73;;
13230;SDS011;6681;53.254;10.398;2023-03-14T01:33:33;6.23;;;1.67;;
13230;SDS011;6681;53.254;10.398;2023-03-14T01:35:59;1.27;;;1.17;;
13230;SDS011;6681;53.254;10.398;2023-03-14T01:38:27;4.20;;;1.67;;
13230;SDS011;6681;53.254;10.398;2023-03-14T01:40:59;7.77;;;1.63;;
13230;SDS011;6681;53.254;10.398;2023-03-14T01:43:25;5.53;;;1.77;;
13230;SDS011;6681;53.254;10.398;2023-03-14T01:46:12;3.97;;;1.30;;
13230;SDS011;6681;53.254;10.398;2023-03-14T01:56:45;3.63;;;1.50;;
13230;SDS011;6681;53.254;10.398;2023-03-14T01:59:14;4.73;;;1.40;;
13230;SDS011;6681;53.254;10.398;2023-03-14T02:01:41;2.57;;;1.77;;
13230;SDS011;6681;53.254;10.398;2023-03-14T02:04:09;4.27;;;1.47;;
13230;SDS011;6681;53.254;10.398;2023-03-14T02:06:59;3.50;;;1.30;;
13230;SDS011;6681;53.254;10.398;2023-03-14T02:09:25;7.63;;;1.50;;
13230;SDS011;6681;53.254;10.398;2023-03-14T02:11:51;5.30;;;1.77;;
13230;SDS011;6681;53.254;10.398;2023-03-14T02:14:36;7.10;;;2.47;;
13230;SDS011;6681;53.254;10.398;2023-03-14T02:17:02;4.13;;;1.67;;
13230;SDS011;6681;53.254;10.398;2023-03-14T02:22:08;2.87;;;1.80;;
13230;SDS011;6681;53.254;10.398;2023-03-14T02:27:20;4.90;;;1.73;;
13230;SDS011;6681;53.254;10.398;2023-03-14T02:30:00;4.67;;;1.90;;
13230;SDS011;6681;53.254;10.398;2023-03-14T02:32:29;2.33;;;1.70;;
13230;SDS011;6681;53.254;10.398;2023-03-14T02:34:58;3.27;;;1.63;;
13230;SDS011;6681;53.254;10.398;2023-03-14T02:37:32;6.57;;;2.10;;
13230;SDS011;6681;53.254;10.398;2023-03-14T02:40:04;3.90;;;1.87;;
13230;SDS011;6681;53.254;10.398;2023-03-14T02:42:30;5.87;;;2.67;;
13230;SDS011;6681;53.254;10.398;2023-03-14T02:47:34;5.27;;;2.27;;
13230;SDS011;6681;53.254;10.398;2023-03-14T02:50:09;3.83;;;1.90;;
13230;SDS011;6681;53.254;10.398;2023-03-14T02:52:44;5.03;;;1.60;;
13230;SDS011;6681;53.254;10.398;2023-03-14T02:55:10;12.73;;;2.30;;
13230;SDS011;6681;53.254;10.398;2023-03-14T02:57:35;2.43;;;2.23;;
13230;SDS011;6681;53.254;10.398;2023-03-14T03:00:01;4.43;;;3.07;;
13230;SDS011;6681;53.254;10.398;2023-03-14T03:02:31;6.67;;;2.90;;
13230;SDS011;6681;53.254;10.398;2023-03-14T03:04:57;4.50;;;1.60;;
13230;SDS011;6681;53.254;10.398;2023-03-14T03:07:23;7.60;;;1.93;;
13230;SDS011;6681;53.254;10.398;2023-03-14T03:09:49;6.90;;;1.83;;
13230;SDS011;6681;53.254;10.398;2023-03-14T03:12:14;9.07;;;2.30;;
13230;SDS011;6681;53.254;10.398;2023-03-14T03:14:40;10.87;;;2.20;;
13230;SDS011;6681;53.254;10.398;2023-03-14T03:17:06;4.17;;;1.77;;
13230;SDS011;6681;53.254;10.398;2023-03-14T03:19:32;3.67;;;2.03;;
13230;SDS011;6681;53.254;10.398;2023-03-14T03:21:58;5.13;;;2.43;;
13230;SDS011;6681;53.254;10.398;2023-03-14T03:24:25;4.33;;;3.40;;
13230;SDS011;6681;53.254;10.398;2023-03-14T03:26:51;3.03;;;1.53;;
13230;SDS011;6681;53.254;10.398;2023-03-14T03:29:17;3.13;;;1.87;;
13230;SDS011;6681;53.254;10.398;2023-03-14T03:31:43;5.07;;;1.80;;
13230;SDS011;6681;53.254;10.398;2023-03-14T03:34:10;6.77;;;1.97;;
13230;SDS011;6681;53.254;10.398;2023-03-14T03:36:37;5.20;;;2.03;;
13230;SDS011;6681;53.254;10.398;2023-03-14T03:39:03;5.53;;;1.83;;
13230;SDS011;6681;53.254;10.398;2023-03-14T03:41:29;7.17;;;1.80;;
13230;SDS011;6681;53.254;10.398;2023-03-14T03:43:55;4.93;;;1.63;;
13230;SDS011;6681;53.254;10.398;2023-03-14T03:46:21;3.90;;;2.10;;
13230;SDS011;6681;53.254;10.398;2023-03-14T03:48:47;5.70;;;1.83;;
13230;SDS011;6681;53.254;10.398;2023-03-14T03:51:13;3.90;;;1.60;;
13230;SDS011;6681;53.254;10.398;2023-03-14T03:53:41;6.87;;;2.27;;
13230;SDS011;6681;53.254;10.398;2023-03-14T03:56:07;6.37;;;1.60;;
13230;SDS011;6681;53.254;10.398;2023-03-14T03:58:33;5.50;;;1.93;;
13230;SDS011;6681;53.254;10.398;2023-03-14T04:00:59;6.37;;;1.53;;
13230;SDS011;6681;53.254;10.398;2023-03-14T04:03:25;3.67;;;1.80;;
13230;SDS011;6681;53.254;10.398;2023-03-14T04:06:00;2.90;;;1.60;;
13230;SDS011;6681;53.254;10.398;2023-03-14T04:08:27;9.23;;;1.73;;
13230;SDS011;6681;53.254;10.398;2023-03-14T04:10:54;3.70;;;1.60;;
13230;SDS011;6681;53.254;10.398;2023-03-14T04:13:21;8.00;;;1.93;;
13230;SDS011;6681;53.254;10.398;2023-03-14T04:15:47;8.53;;;1.60;;
13230;SDS011;6681;53.254;10.398;2023-03-14T04:18:12;4.07;;;1.57;;
13230;SDS011;6681;53.254;10.398;2023-03-14T04:20:38;3.57;;;1.67;;
13230;SDS011;6681;53.254;10.398;2023-03-14T04:23:04;3.07;;;1.47;;
13230;SDS011;6681;53.254;10.398;2023-03-14T04:25:29;5.13;;;1.67;;
13230;SDS011;6681;53.254;10.398;2023-03-14T04:27:55;3.70;;;1.90;;
13230;SDS011;6681;53.254;10.398;2023-03-14T04:30:20;5.43;;;1.97;;
13230;SDS011;6681;53.254;10.398;2023-03-14T04:32:46;4.33;;;1.07;;
13230;SDS011;6681;53.254;10.398;2023-03-14T04:35:12;4.67;;;1.33;;
13230;SDS011;6681;53.254;10.398;2023-03-14T04:37:39;3.80;;;1.73;;
13230;SDS011;6681;53.254;10.398;2023-03-14T04:40:06;5.83;;;1.40;;
13230;SDS011;6681;53.254;10.398;2023-03-14T04:42:33;5.40;;;1.50;;
13230;SDS011;6681;53.254;10.398;2023-03-14T04:44:59;2.43;;;1.40;;
13230;SDS011;6681;53.254;10.398;2023-03-14T04:47:25;3.83;;;1.20;;
13230;SDS011;6681;53.254;10.398;2023-03-14T04:49:51;4.83;;;1.40;;
13230;SDS011;6681;53.254;10.398;2023-03-14T04:52:16;5.60;;;1.97;;
13230;SDS011;6681;53.254;10.398;2023-03-14T04:54:42;3.27;;;1.37;;
13230;SDS011;6681;53.254;10.398;2023-03-14T04:57:08;4.83;;;1.90;;
13230;SDS011;6681;53.254;10.398;2023-03-14T04:59:33;9.67;;;1.80;;
13230;SDS011;6681;53.254;10.398;2023-03-14T05:01:59;6.27;;;2.10;;
13230;SDS011;6681;53.254;10.398;2023-03-14T05:04:25;1.90;;;1.40;;
13230;SDS011;6681;53.254;10.398;2023-03-14T05:06:50;2.63;;;0.90;;
13230;SDS011;6681;53.254;10.398;2023-03-14T05:09:16;11.70;;;1.87;;
13230;SDS011;6681;53.254;10.398;2023-03-14T05:11:42;3.67;;;0.77;;
13230;SDS011;6681;53.254;10.398;2023-03-14T05:14:08;3.17;;;1.57;;
13230;SDS011;6681;53.254;10.398;2023-03-14T05:16:33;4.07;;;0.70;;
13230;SDS011;6681;53.254;10.398;2023-03-14T05:18:59;3.10;;;1.23;;
13230;SDS011;6681;53.254;10.398;2023-03-14T05:21:26;3.03;;;1.17;;
13230;SDS011;6681;53.254;10.398;2023-03-14T05:23:52;4.90;;;1.10;;
13230;SDS011;6681;53.254;10.398;2023-03-14T05:26:17;3.87;;;1.37;;
13230;SDS011;6681;53.254;10.398;2023-03-14T05:28:43;3.67;;;1.43;;
13230;SDS011;6681;53.254;10.398;2023-03-14T05:31:09;2.23;;;1.20;;
13230;SDS011;6681;53.254;10.398;2023-03-14T05:33:35;6.67;;;1.73;;
13230;SDS011;6681;53.254;10.398;2023-03-14T05:36:01;2.97;;;1.13;;
13230;SDS011;6681;53.254;10.398;2023-03-14T05:38:27;1.23;;;1.10;;
13230;SDS011;6681;53.254;10.398;2023-03-14T05:40:52;8.07;;;1.30;;
13230;SDS011;6681;53.254;10.398;2023-03-14T05:43:18;3.20;;;1.03;;
13230;SDS011;6681;53.254;10.398;2023-03-14T05:45:44;7.17;;;1.70;;
13230;SDS011;6681;53.254;10.398;2023-03-14T05:48:10;1.57;;;1.23;;
13230;SDS011;6681;53.254;10.398;2023-03-14T05:50:36;5.13;;;1.73;;
13230;SDS011;6681;53.254;10.398;2023-03-14T05:53:01;5.43;;;1.60;;
13230;SDS011;6681;53.254;10.398;2023-03-14T05:55:27;2.20;;;1.80;;
13230;SDS011;6681;53.254;10.398;2023-03-14T05:57:53;4.20;;;1.90;;
13230;SDS011;6681;53.254;10.398;2023-03-14T06:00:19;2.00;;;1.33;;
13230;SDS011;6681;53.254;10.398;2023-03-14T06:02:46;2.23;;;1.77;;
13230;SDS011;6681;53.254;10.398;2023-03-14T06:05:12;2.40;;;2.10;;
13230;SDS011;6681;53.254;10.398;2023-03-14T06:07:37;4.20;;;1.30;;
13230;SDS011;6681;53.254;10.398;2023-03-14T06:10:03;3.60;;;1.77;;
13230;SDS011;6681;53.254;10.398;2023-03-14T06:12:30;3.03;;;1.37;;
13230;SDS011;6681;53.254;10.398;2023-03-14T06:14:55;5.13;;;1.53;;
13230;SDS011;6681;53.254;10.398;2023-03-14T06:17:21;4.00;;;1.73;;
13230;SDS011;6681;53.254;10.398;2023-03-14T06:19:47;3.23;;;1.13;;
13230;SDS011;6681;53.254;10.398;2023-03-14T06:22:16;4.20;;;1.30;;
13230;SDS011;6681;53.254;10.398;2023-03-14T06:24:41;4.03;;;1.80;;
13230;SDS011;6681;53.254;10.398;2023-03-14T06:27:07;2.77;;;1.27;;
13230;SDS011;6681;53.254;10.398;2023-03-14T06:29:33;1.50;;;1.40;;
13230;SDS011;6681;53.254;10.398;2023-03-14T06:31:58;2.70;;;1.47;;
13230;SDS011;6681;53.254;10.398;2023-03-14T06:34:24;6.97;;;2.40;;
13230;SDS011;6681;53.254;10.398;2023-03-14T06:36:50;1.63;;;1.13;;
13230;SDS011;6681;53.254;10.398;2023-03-14T06:39:16;6.10;;;2.10;;
13230;SDS011;6681;53.254;10.398;2023-03-14T06:41:41;1.87;;;1.03;;
13230;SDS011;6681;53.254;10.398;2023-03-14T06:44:16;2.70;;;1.53;;
13230;SDS011;6681;53.254;10.398;2023-03-14T06:46:41;5.87;;;0.90;;
13230;SDS011;6681;53.254;10.398;2023-03-14T06:49:07;3.17;;;1.67;;
13230;SDS011;6681;53.254;10.398;2023-03-14T06:51:33;2.83;;;1.50;;
13230;SDS011;6681;53.254;10.398;2023-03-14T06:53:59;6.60;;;1.83;;
13230;SDS011;6681;53.254;10.398;2023-03-14T06:56:24;2.87;;;1.27;;
13230;SDS011;6681;53.254;10.398;2023-03-14T06:58:50;2.13;;;0.90;;
13230;SDS011;6681;53.254;10.398;2023-03-14T07:01:28;3.27;;;1.10;;
13230;SDS011;6681;53.254;10.398;2023-03-14T07:03:55;3.43;;;1.83;;
13230;SDS011;6681;53.254;10.398;2023-03-14T07:06:21;8.10;;;2.07;;
13230;SDS011;6681;53.254;10.398;2023-03-14T07:08:47;4.33;;;2.17;;
13230;SDS011;6681;53.254;10.398;2023-03-14T07:11:13;5.10;;;1.47;;
13230;SDS011;6681;53.254;10.398;2023-03-14T07:13:39;3.90;;;1.80;;
13230;SDS011;6681;53.254;10.398;2023-03-14T07:16:05;3.73;;;1.57;;
13230;SDS011;6681;53.254;10.398;2023-03-14T07:18:31;4.00;;;1.40;;
13230;SDS011;6681;53.254;10.398;2023-03-14T07:20:57;7.67;;;1.70;;
13230;SDS011;6681;53.254;10.398;2023-03-14T07:23:22;4.30;;;2.10;;
13230;SDS011;6681;53.254;10.398;2023-03-14T07:25:48;2.90;;;1.77;;
13230;SDS011;6681;53.254;10.398;2023-03-14T07:28:15;2.40;;;1.67;;
13230;SDS011;6681;53.254;10.398;2023-03-14T07:30:41;6.50;;;3.03;;
13230;SDS011;6681;53.254;10.398;2023-03-14T07:33:07;8.70;;;2.70;;
13230;SDS011;6681;53.254;10.398;2023-03-14T07:35:32;4.73;;;2.30;;
13230;SDS011;6681;53.254;10.398;2023-03-14T07:37:58;3.07;;;1.93;;
13230;SDS011;6681;53.254;10.398;2023-03-14T07:40:24;3.13;;;1.90;;
13230;SDS011;6681;53.254;10.398;2023-03-14T07:42:49;12.03;;;3.03;;
13230;SDS011;6681;53.254;10.398;2023-03-14T07:45:15;2.83;;;2.33;;
13230;SDS011;6681;53.254;10.398;2023-03-14T07:47:41;5.07;;;2.97;;
13230;SDS011;6681;53.254;10.398;2023-03-14T07:50:07;4.23;;;2.20;;
13230;SDS011;6681;53.254;10.398;2023-03-14T07:52:33;3.97;;;2.03;;
13230;SDS011;6681;53.254;10.398;2023-03-14T07:54:59;6.93;;;2.13;;
13230;SDS011;6681;53.254;10.398;2023-03-14T07:57:24;4.27;;;2.40;;
13230;SDS011;6681;53.254;10.398;2023-03-14T07:59:50;5.93;;;2.63;;
13230;SDS011;6681;53.254;10.398;2023-03-14T08:02:16;7.10;;;1.93;;
13230;SDS011;6681;53.254;10.398;2023-03-14T08:04:43;3.50;;;2.53;;
13230;SDS011;6681;53.254;10.398;2023-03-14T08:07:08;5.23;;;2.33;;
13230;SDS011;6681;53.254;10.398;2023-03-14T08:09:34;3.90;;;2.13;;
13230;SDS011;6681;53.254;10.398;2023-03-14T08:11:59;2.67;;;2.43;;
13230;SDS011;6681;53.254;10.398;2023-03-14T08:14:25;10.97;;;2.90;;
13230;SDS011;6681;53.254;10.398;2023-03-14T08:16:51;6.30;;;3.10;;
13230;SDS011;6681;53.254;10.398;2023-03-14T08:19:17;2.73;;;2.00;;
13230;SDS011;6681;53.254;10.398;2023-03-14T08:21:42;6.23;;;2.73;;
13230;SDS011;6681;53.254;10.398;2023-03-14T08:24:08;7.53;;;3.43;;
13230;SDS011;6681;53.254;10.398;2023-03-14T08:26:34;7.00;;;3.67;;
13230;SDS011;6681;53.254;10.398;2023-03-14T08:29:00;11.47;;;3.37;;
13230;SDS011;6681;53.254;10.398;2023-03-14T08:31:26;9.40;;;4.17;;
13230;SDS011;6681;53.254;10.398;2023-03-14T08:33:51;5.93;;;3.40;;
13230;SDS011;6681;53.254;10.398;2023-03-14T08:36:18;5.07;;;2.53;;
13230;SDS011;6681;53.254;10.398;2023-03-14T08:38:44;5.53;;;2.63;;
13230;SDS011;6681;53.254;10.398;2023-03-14T08:41:10;9.73;;;3.33;;
13230;SDS011;6681;53.254;10.398;2023-03-14T08:43:36;3.83;;;2.80;;
13230;SDS011;6681;53.254;10.398;2023-03-14T08:46:02;4.23;;;2.70;;
13230;SDS011;6681;53.254;10.398;2023-03-14T08:48:28;4.70;;;2.93;;
13230;SDS011;6681;53.254;10.398;2023-03-14T08:50:56;8.67;;;3.57;;
13230;SDS011;6681;53.254;10.398;2023-03-14T08:53:22;4.93;;;2.37;;
13230;SDS011;6681;53.254;10.398;2023-03-14T08:55:54;5.67;;;2.80;;
13230;SDS011;6681;53.254;10.398;2023-03-14T08:58:19;7.07;;;2.77;;
13230;SDS011;6681;53.254;10.398;2023-03-14T09:00:46;5.23;;;3.00;;
13230;SDS011;6681;53.254;10.398;2023-03-14T09:03:11;6.43;;;2.00;;
13230;SDS011;6681;53.254;10.398;2023-03-14T09:05:38;4.87;;;2.90;;
13230;SDS011;6681;53.254;10.398;2023-03-14T09:08:03;5.07;;;2.17;;
13230;SDS011;6681;53.254;10.398;2023-03-14T09:10:29;5.27;;;1.90;;
13230;SDS011;6681;53.254;10.398;2023-03-14T09:12:55;3.47;;;1.73;;
13230;SDS011;6681;53.254;10.398;2023-03-14T09:15:22;4.67;;;2.97;;
13230;SDS011;6681;53.254;10.398;2023-03-14T09:17:47;5.13;;;3.07;;
13230;SDS011;6681;53.254;10.398;2023-03-14T09:20:13;2.97;;;1.77;;
13230;SDS011;6681;53.254;10.398;2023-03-14T09:22:39;4.30;;;1.73;;
13230;SDS011;6681;53.254;10.398;2023-03-14T09:25:05;2.40;;;1.63;;
13230;SDS011;6681;53.254;10.398;2023-03-14T09:27:34;4.67;;;1.70;;
13230;SDS011;6681;53.254;10.398;2023-03-14T09:30:00;3.67;;;1.43;;
13230;SDS011;6681;53.254;10.398;2023-03-14T09:32:25;1.77;;;1.00;;
13230;SDS011;6681;53.254;10.398;2023-03-14T09:34:51;3.80;;;1.20;;
13230;SDS011;6681;53.254;10.398;2023-03-14T09:37:16;4.87;;;1.43;;
13230;SDS011;6681;53.254;10.398;2023-03-14T09:39:42;1.77;;;1.10;;
13230;SDS011;6681;53.254;10.398;2023-03-14T09:42:11;3.73;;;1.27;;
13230;SDS011;6681;53.254;10.398;2023-03-14T09:44:42;2.23;;;1.57;;
13230;SDS011;6681;53.254;10.398;2023-03-14T09:47:19;1.20;;;0.77;;
13230;SDS011;6681;53.254;10.398;2023-03-14T09:49:46;2.43;;;0.90;;
13230;SDS011;6681;53.254;10.398;2023-03-14T09:54:52;2.77;;;0.97;;
13230;SDS011;6681;53.254;10.398;2023-03-14T09:57:23;3.03;;;1.83;;
13230;SDS011;6681;53.254;10.398;2023-03-14T09:59:52;2.30;;;0.70;;
13230;SDS011;6681;53.254;10.398;2023-03-14T10:02:22;1.40;;;0.70;;
13230;SDS011;6681;53.254;10.398;2023-03-14T10:04:50;2.73;;;0.80;;
13230;SDS011;6681;53.254;10.398;2023-03-14T10:07:30;6.00;;;0.97;;
13230;SDS011;6681;53.254;10.398;2023-03-14T10:09:57;2.80;;;0.70;;
13230;SDS011;6681;53.254;10.398;2023-03-14T10:12:31;1.20;;;0.60;;
13230;SDS011;6681;53.254;10.398;2023-03-14T10:14:57;0.93;;;0.50;;
13230;SDS011;6681;53.254;10.398;2023-03-14T10:17:38;5.83;;;0.60;;
13230;SDS011;6681;53.254;10.398;2023-03-14T10:20:45;5.87;;;0.80;;
13230;SDS011;6681;53.254;10.398;2023-03-14T10:26:04;4.17;;;0.40;;
13230;SDS011;6681;53.254;10.398;2023-03-14T10:28:50;7.00;;;0.90;;
13230;SDS011;6681;53.254;10.398;2023-03-14T10:31:18;0.80;;;0.50;;
13230;SDS011;6681;53.254;10.398;2023-03-14T10:34:02;0.37;;;0.37;;
13230;SDS011;6681;53.254;10.398;2023-03-14T10:36:30;0.80;;;0.50;;
13230;SDS011;6681;53.254;10.398;2023-03-14T10:39:15;1.20;;;0.43;;
13230;SDS011;6681;53.254;10.398;2023-03-14T10:44:46;2.10;;;0.47;;
13230;SDS011;6681;53.254;10.398;2023-03-14T10:47:19;0.40;;;0.40;;
13230;SDS011;6681;53.254;10.398;2023-03-14T10:49:49;0.53;;;0.53;;
13230;SDS011;6681;53.254;10.398;2023-03-14T10:52:25;0.67;;;0.50;;
13230;SDS011;6681;53.254;10.398;2023-03-14T10:54:54;0.40;;;0.30;;
13230;SDS011;6681;53.254;10.398;2023-03-14T10:57:23;1.30;;;0.40;;
13230;SDS011;6681;53.254;10.398;2023-03-14T10:59:49;0.90;;;0.30;;
13230;SDS011;6681;53.254;10.398;2023-03-14T11:05:38;1.33;;;0.30;;
13230;SDS011;6681;53.254;10.398;2023-03-14T11:08:45;0.53;;;0.30;;
13230;SDS011;6681;53.254;10.398;2023-03-14T11:13:59;0.50;;;0.50;;
13230;SDS011;6681;53.254;10.398;2023-03-14T11:25:05;2.27;;;1.97;;
13230;SDS011;6681;53.254;10.398;2023-03-14T11:27:41;2.73;;;1.80;;
13230;SDS011;6681;53.254;10.398;2023-03-14T11:33:14;4.20;;;2.67;;
13230;SDS011;6681;53.254;10.398;2023-03-14T11:35:58;3.67;;;3.03;;
13230;SDS011;6681;53.254;10.398;2023-03-14T11:43:53;1.10;;;0.77;;
13230;SDS011;6681;53.254;10.398;2023-03-14T11:49:05;2.87;;;0.50;;
13230;SDS011;6681;53.254;10.398;2023-03-14T11:51:41;3.13;;;0.50;;
13230;SDS011;6681;53.254;10.398;2023-03-14T11:56:50;0.40;;;0.20;;
13230;SDS011;6681;53.254;10.398;2023-03-14T11:59:25;0.23;;;0.10;;
13230;SDS011;6681;53.254;10.398;2023-03-14T12:07:20;1.43;;;0.20;;
13230;SDS011;6681;53.254;10.398;2023-03-14T12:09:54;1.60;;;0.30;;
13230;SDS011;6681;53.254;10.398;2023-03-14T12:12:21;0.40;;;0.27;;
13230;SDS011;6681;53.254;10.398;2023-03-14T12:14:55;0.30;;;0.30;;
13230;SDS011;6681;53.254;10.398;2023-03-14T12:22:52;4.07;;;0.40;;
13230;SDS011;6681;53.254;10.398;2023-03-14T12:25:22;0.97;;;0.50;;
13230;SDS011;6681;53.254;10.398;2023-03-14T12:28:03;1.43;;;0.33;;
13230;SDS011;6681;53.254;10.398;2023-03-14T12:30:41;0.93;;;0.60;;
13230;SDS011;6681;53.254;10.398;2023-03-14T12:43:39;2.27;;;0.70;;
13230;SDS011;6681;53.254;10.398;2023-03-14T12:48:34;5.47;;;0.93;;
13230;SDS011;6681;53.254;10.398;2023-03-14T12:51:03;3.43;;;0.80;;
13230;SDS011;6681;53.254;10.398;2023-03-14T12:53:41;1.80;;;0.53;;
13230;SDS011;6681;53.254;10.398;2023-03-14T12:59:24;4.80;;;0.87;;
13230;SDS011;6681;53.254;10.398;2023-03-14T13:07:01;2.67;;;1.07;;
13230;SDS011;6681;53.254;10.398;2023-03-14T13:12:09;9.10;;;1.63;;
13230;SDS011;6681;53.254;10.398;2023-03-14T13:14:36;9.90;;;2.20;;
13230;SDS011;6681;53.254;10.398;2023-03-14T13:17:14;5.23;;;1.07;;
13230;SDS011;6681;53.254;10.398;2023-03-14T13:19:44;4.63;;;1.13;;
13230;SDS011;6681;53.254;10.398;2023-03-14T13:22:17;7.10;;;2.23;;
13230;SDS011;6681;53.254;10.398;2023-03-14T13:24:48;7.00;;;1.37;;
13230;SDS011;6681;53.254;10.398;2023-03-14T13:27:18;3.30;;;1.03;;
13230;SDS011;6681;53.254;10.398;2023-03-14T13:29:48;5.70;;;1.50;;
13230;SDS011;6681;53.254;10.398;2023-03-14T13:32:20;6.20;;;1.33;;
13230;SDS011;6681;53.254;10.398;2023-03-14T13:34:46;4.17;;;0.90;;
13230;SDS011;6681;53.254;10.398;2023-03-14T13:37:20;6.23;;;1.47;;
13230;SDS011;6681;53.254;10.398;2023-03-14T13:39:54;7.23;;;1.47;;
13230;SDS011;6681;53.254;10.398;2023-03-14T13:42:24;5.97;;;1.10;;
13230;SDS011;6681;53.254;10.398;2023-03-14T13:44:54;4.90;;;1.60;;
13230;SDS011;6681;53.254;10.398;2023-03-14T13:47:22;10.77;;;1.70;;
13230;SDS011;6681;53.254;10.398;2023-03-14T13:49:50;5.77;;;1.27;;
13230;SDS011;6681;53.254;10.398;2023-03-14T13:55:00;13.30;;;2.67;;
13230;SDS011;6681;53.254;10.398;2023-03-14T13:57:41;10.87;;;2.03;;
13230;SDS011;6681;53.254;10.398;2023-03-14T14:00:20;13.27;;;2.77;;
13230;SDS011;6681;53.254;10.398;2023-03-14T14:02:46;7.00;;;1.90;;
13230;SDS011;6681;53.254;10.398;2023-03-14T14:05:12;9.33;;;2.37;;
13230;SDS011;6681;53.254;10.398;2023-03-14T14:07:39;8.77;;;2.23;;
13230;SDS011;6681;53.254;10.398;2023-03-14T14:10:09;11.63;;;2.13;;
13230;SDS011;6681;53.254;10.398;2023-03-14T14:12:46;9.70;;;1.63;;
13230;SDS011;6681;53.254;10.398;2023-03-14T14:15:17;5.37;;;1.30;;
13230;SDS011;6681;53.254;10.398;2023-03-14T14:17:54;7.67;;;1.70;;
13230;SDS011;6681;53.254;10.398;2023-03-14T14:23:00;8.20;;;1.57;;
13230;SDS011;6681;53.254;10.398;2023-03-14T14:25:28;7.40;;;1.87;;
13230;SDS011;6681;53.254;10.398;2023-03-14T14:27:55;10.37;;;3.60;;
13230;SDS011;6681;53.254;10.398;2023-03-14T14:32:47;3.53;;;1.50;;
13230;SDS011;6681;53.254;10.398;2023-03-14T14:35:31;6.30;;;1.70;;
13230;SDS011;6681;53.254;10.398;2023-03-14T14:37:58;8.17;;;1.40;;
13230;SDS011;6681;53.254;10.398;2023-03-14T14:40:25;12.47;;;1.70;;
13230;SDS011;6681;53.254;10.398;2023-03-14T14:42:53;15.03;;;2.40;;
13230;SDS011;6681;53.254;10.398;2023-03-14T14:45:20;10.03;;;3.30;;
13230;SDS011;6681;53.254;10.398;2023-03-14T14:47:55;7.30;;;1.70;;
13230;SDS011;6681;53.254;10.398;2023-03-14T14:50:31;6.37;;;1.60;;
13230;SDS011;6681;53.254;10.398;2023-03-14T14:52:59;7.53;;;2.40;;
13230;SDS011;6681;53.254;10.398;2023-03-14T14:55:39;7.27;;;2.13;;
13230;SDS011;6681;53.254;10.398;2023-03-14T14:58:16;8.37;;;1.60;;
13230;SDS011;6681;53.254;10.398;2023-03-14T15:01:07;9.70;;;1.57;;
13230;SDS011;6681;53.254;10.398;2023-03-14T15:03:41;10.50;;;2.13;;
13230;SDS011;6681;53.254;10.398;2023-03-14T15:06:08;4.20;;;1.17;;
13230;SDS011;6681;53.254;10.398;2023-03-14T15:08:36;8.57;;;1.80;;
13230;SDS011;6681;53.254;10.398;2023-03-14T15:11:02;8.47;;;1.60;;
13230;SDS011;6681;53.254;10.398;2023-03-14T15:13:28;8.03;;;1.53;;
13230;SDS011;6681;53.254;10.398;2023-03-14T15:15:54;6.03;;;2.17;;
13230;SDS011;6681;53.254;10.398;2023-03-14T15:18:23;6.13;;;1.33;;
13230;SDS011;6681;53.254;10.398;2023-03-14T15:20:50;9.03;;;1.97;;
13230;SDS011;6681;53.254;10.398;2023-03-14T15:23:17;8.77;;;2.70;;
13230;SDS011;6681;53.254;10.398;2023-03-14T15:25:45;2.90;;;1.57;;
13230;SDS011;6681;53.254;10.398;2023-03-14T15:30:48;10.53;;;1.47;;
13230;SDS011;6681;53.254;10.398;2023-03-14T15:33:15;5.93;;;1.60;;
13230;SDS011;6681;53.254;10.398;2023-03-14T15:35:41;8.40;;;1.90;;
13230;SDS011;6681;53.254;10.398;2023-03-14T15:38:09;3.53;;;1.40;;
13230;SDS011;6681;53.254;10.398;2023-03-14T15:40:42;7.27;;;1.03;;
13230;SDS011;6681;53.254;10.398;2023-03-14T15:43:08;6.50;;;1.70;;
13230;SDS011;6681;53.254;10.398;2023-03-14T15:45:34;4.67;;;1.10;;
13230;SDS011;6681;53.254;10.398;2023-03-14T15:48:00;6.27;;;1.47;;
13230;SDS011;6681;53.254;10.398;2023-03-14T15:50:26;10.67;;;1.77;;
13230;SDS011;6681;53.254;10.398;2023-03-14T15:52:52;4.20;;;0.77;;
13230;SDS011;6681;53.254;10.398;2023-03-14T15:55:18;8.17;;;1.27;;
13230;SDS011;6681;53.254;10.398;2023-03-14T15:57:44;4.30;;;1.10;;
13230;SDS011;6681;53.254;10.398;2023-03-14T16:00:15;6.50;;;1.40;;
13230;SDS011;6681;53.254;10.398;2023-03-14T16:02:47;7.33;;;1.50;;
13230;SDS011;6681;53.254;10.398;2023-03-14T16:05:13;8.23;;;1.37;;
13230;SDS011;6681;53.254;10.398;2023-03-14T16:07:39;4.97;;;1.53;;
13230;SDS011;6681;53.254;10.398;2023-03-14T16:10:06;4.03;;;2.13;;
13230;SDS011;6681;53.254;10.398;2023-03-14T16:12:32;4.23;;;1.13;;
13230;SDS011;6681;53.254;10.398;2023-03-14T16:14:59;4.97;;;1.03;;
13230;SDS011;6681;53.254;10.398;2023-03-14T16:17:25;6.27;;;1.70;;
13230;SDS011;6681;53.254;10.398;2023-03-14T16:19:50;6.87;;;1.40;;
13230;SDS011;6681;53.254;10.398;2023-03-14T16:22:16;6.40;;;1.70;;
13230;SDS011;6681;53.254;10.398;2023-03-14T16:24:45;4.00;;;1.43;;
13230;SDS011;6681;53.254;10.398;2023-03-14T16:27:10;7.73;;;1.33;;
13230;SDS011;6681;53.254;10.398;2023-03-14T16:29:40;8.13;;;1.50;;
13230;SDS011;6681;53.254;10.398;2023-03-14T16:32:12;5.27;;;1.43;;
13230;SDS011;6681;53.254;10.398;2023-03-14T16:34:38;6.20;;;1.47;;